createdAt,value
2018-10-06T00:01:42.120Z,11.87
2018-10-06T00:04:10.732Z,13.10
2018-10-06T00:06:39.344Z,11.57
2018-10-06T00:09:08.191Z,15.80
2018-10-06T00:11:36.812Z,12.63
2018-10-06T00:14:05.452Z,11.87
2018-10-06T00:16:34.063Z,13.83
2018-10-06T00:19:02.680Z,11.73
2018-10-06T00:21:31.308Z,11.40
2018-10-06T00:23:59.933Z,12.63
2018-10-06T00:26:28.554Z,13.07
2018-10-06T00:28:57.179Z,11.63
2018-10-06T00:31:25.778Z,11.77
2018-10-06T00:33:54.648Z,11.60
2018-10-06T00:36:23.265Z,11.60
2018-10-06T00:38:51.886Z,13.03
2018-10-06T00:41:20.505Z,10.53
2018-10-06T00:43:49.131Z,13.63
2018-10-06T00:46:17.733Z,10.83
2018-10-06T00:48:46.358Z,14.90
2018-10-06T00:51:15.037Z,13.00
2018-10-06T00:53:43.644Z,12.60
2018-10-06T00:56:12.263Z,13.47
2018-10-06T00:58:40.896Z,13.23
2018-10-06T01:01:09.480Z,10.50
2018-10-06T01:03:38.097Z,11.67
2018-10-06T01:06:06.727Z,12.57
2018-10-06T01:08:35.429Z,10.00
2018-10-06T01:11:04.037Z,10.87
2018-10-06T01:13:32.660Z,11.87
2018-10-06T01:16:01.285Z,13.30
2018-10-06T01:18:29.885Z,11.30
2018-10-06T01:20:58.528Z,11.43
2018-10-06T01:23:27.147Z,10.67
2018-10-06T01:25:55.804Z,12.00
2018-10-06T01:28:24.420Z,13.20
2018-10-06T01:30:53.052Z,12.50
2018-10-06T01:33:21.663Z,11.93
2018-10-06T01:35:50.447Z,12.27
2018-10-06T01:38:19.067Z,11.60
2018-10-06T01:40:47.697Z,12.37
2018-10-06T01:43:16.484Z,13.13
2018-10-06T01:45:45.111Z,11.77
2018-10-06T01:48:13.740Z,12.60
2018-10-06T01:50:42.348Z,15.10
2018-10-06T01:53:10.945Z,13.83
2018-10-06T01:55:39.579Z,11.67
2018-10-06T01:58:08.183Z,12.77
2018-10-06T02:00:36.803Z,12.63
2018-10-06T02:03:05.521Z,12.50
2018-10-06T02:05:34.148Z,12.30
2018-10-06T02:08:02.760Z,12.77
2018-10-06T02:10:31.371Z,12.77
2018-10-06T02:12:59.978Z,11.27
2018-10-06T02:15:28.583Z,12.47
2018-10-06T02:17:57.209Z,13.17
2018-10-06T02:20:25.883Z,13.87
2018-10-06T02:22:54.492Z,13.30
2018-10-06T02:25:23.108Z,11.30
2018-10-06T02:27:51.719Z,13.33
2018-10-06T02:30:20.339Z,13.30
2018-10-06T02:32:49.196Z,12.60
2018-10-06T02:35:17.857Z,14.07
2018-10-06T02:37:46.476Z,11.93
2018-10-06T02:40:15.087Z,12.70
2018-10-06T02:42:43.703Z,12.47
2018-10-06T02:45:12.392Z,12.97
2018-10-06T02:47:41.003Z,13.23
2018-10-06T02:50:09.610Z,13.73
2018-10-06T02:52:38.228Z,13.17
2018-10-06T02:55:06.876Z,13.90
2018-10-06T02:57:35.513Z,14.10
2018-10-06T03:00:04.408Z,13.07
2018-10-06T03:02:33.019Z,13.70
2018-10-06T03:05:01.627Z,13.43
2018-10-06T03:07:30.239Z,14.27
2018-10-06T03:09:58.853Z,14.53
2018-10-06T03:12:27.456Z,12.87
2018-10-06T03:14:56.060Z,13.10
2018-10-06T03:17:24.673Z,18.33
2018-10-06T03:19:53.263Z,13.50
2018-10-06T03:22:21.915Z,13.20
2018-10-06T03:24:50.513Z,13.40
2018-10-06T03:27:19.121Z,12.33
2018-10-06T03:29:47.724Z,12.20
2018-10-06T03:32:16.334Z,11.50
2018-10-06T03:34:44.971Z,13.40
2018-10-06T03:37:13.581Z,14.53
2018-10-06T03:39:42.179Z,12.87
2018-10-06T03:42:10.792Z,13.30
2018-10-06T03:44:39.390Z,11.93
2018-10-06T03:47:08.010Z,15.93
2018-10-06T03:49:36.625Z,11.83
2018-10-06T03:52:05.223Z,18.27
2018-10-06T03:54:33.836Z,31.97
2018-10-06T03:57:02.471Z,21.80
2018-10-06T03:59:31.071Z,21.13
2018-10-06T04:01:59.699Z,18.27
2018-10-06T04:04:28.295Z,16.07
2018-10-06T04:06:56.907Z,17.60
2018-10-06T04:09:25.507Z,15.67
2018-10-06T04:11:54.116Z,17.43
2018-10-06T04:14:22.720Z,17.53
2018-10-06T04:16:51.320Z,17.50
2018-10-06T04:19:19.955Z,13.37
2018-10-06T04:21:48.787Z,16.80
2018-10-06T04:24:18.392Z,17.63
2018-10-06T04:26:47.084Z,15.20
2018-10-06T04:29:15.641Z,17.10
2018-10-06T04:31:44.318Z,14.17
2018-10-06T04:34:12.863Z,14.53
2018-10-06T04:36:41.482Z,15.50
2018-10-06T04:39:11.832Z,15.17
2018-10-06T04:41:40.446Z,15.27
2018-10-06T04:44:09.641Z,15.37
2018-10-06T04:46:38.555Z,14.17
2018-10-06T04:49:07.176Z,18.03
2018-10-06T04:51:35.788Z,15.20
2018-10-06T04:54:04.404Z,13.83
2018-10-06T04:56:33.115Z,13.13
2018-10-06T04:59:01.709Z,16.30
2018-10-06T05:01:30.311Z,18.07
2018-10-06T05:03:58.928Z,17.70
2018-10-06T05:06:27.532Z,16.03
2018-10-06T05:08:56.143Z,14.93
2018-10-06T05:11:24.747Z,17.67
2018-10-06T05:13:53.364Z,18.60
2018-10-06T05:16:21.972Z,15.70
2018-10-06T05:18:50.576Z,16.30
2018-10-06T05:21:19.168Z,15.07
2018-10-06T05:23:47.780Z,16.67
2018-10-06T05:26:16.377Z,22.23
2018-10-06T05:28:44.983Z,17.17
2018-10-06T05:31:13.575Z,17.97
2018-10-06T05:33:42.191Z,18.40
2018-10-06T05:36:10.808Z,17.57
2018-10-06T05:38:39.427Z,17.97
2018-10-06T05:41:08.086Z,17.23
2018-10-06T05:43:36.699Z,19.17
2018-10-06T05:46:05.299Z,18.87
2018-10-06T05:48:33.950Z,16.53
2018-10-06T05:51:02.559Z,19.57
2018-10-06T05:53:31.164Z,17.07
2018-10-06T05:56:00.060Z,18.13
2018-10-06T05:58:28.662Z,17.13
2018-10-06T06:00:57.268Z,16.47
2018-10-06T06:03:25.872Z,18.37
2018-10-06T06:05:54.470Z,18.87
2018-10-06T06:08:23.088Z,18.17
2018-10-06T06:10:51.691Z,16.90
2018-10-06T06:13:20.300Z,17.90
2018-10-06T06:15:48.965Z,17.10
2018-10-06T06:18:17.522Z,19.80
2018-10-06T06:20:46.126Z,18.93
2018-10-06T06:23:14.728Z,16.60
2018-10-06T06:25:43.327Z,17.83
2018-10-06T06:28:11.932Z,18.53
2018-10-06T06:30:40.543Z,19.47
2018-10-06T06:33:09.144Z,17.47
2018-10-06T06:35:37.776Z,19.17
2018-10-06T06:38:06.403Z,19.10
2018-10-06T06:40:35.011Z,17.33
2018-10-06T06:43:03.840Z,19.17
2018-10-06T06:45:32.478Z,25.17
2018-10-06T06:48:01.152Z,19.47
2018-10-06T06:50:29.716Z,20.40
2018-10-06T06:52:58.327Z,20.23
2018-10-06T06:55:26.944Z,24.50
2018-10-06T06:57:55.540Z,25.60
2018-10-06T07:00:24.160Z,20.90
2018-10-06T07:02:52.771Z,16.80
2018-10-06T07:05:22.400Z,22.33
2018-10-06T07:07:51.643Z,20.40
2018-10-06T07:10:20.259Z,18.83
2018-10-06T07:12:48.859Z,17.20
2018-10-06T07:15:17.496Z,17.13
2018-10-06T07:17:46.190Z,18.73
2018-10-06T07:20:14.799Z,16.63
2018-10-06T07:22:43.639Z,15.37
2018-10-06T07:25:12.295Z,14.87
2018-10-06T07:27:40.916Z,14.70
2018-10-06T07:30:09.523Z,14.10
2018-10-06T07:32:38.141Z,12.90
2018-10-06T07:35:06.760Z,12.53
2018-10-06T07:37:35.376Z,12.20
2018-10-06T07:40:03.991Z,12.70
2018-10-06T07:42:32.600Z,13.43
2018-10-06T07:45:01.286Z,13.10
2018-10-06T07:47:29.831Z,13.27
2018-10-06T07:49:58.504Z,12.50
2018-10-06T07:52:27.130Z,13.27
2018-10-06T07:54:55.749Z,11.40
2018-10-06T07:57:24.359Z,11.50
2018-10-06T07:59:52.978Z,14.37
2018-10-06T08:02:21.591Z,11.77
2018-10-06T08:04:50.221Z,14.00
2018-10-06T08:07:18.823Z,11.97
2018-10-06T08:09:47.443Z,14.03
2018-10-06T08:12:16.052Z,13.40
2018-10-06T08:14:44.661Z,10.73
2018-10-06T08:17:13.275Z,10.30
2018-10-06T08:19:41.871Z,9.83
2018-10-06T08:22:10.470Z,10.10
2018-10-06T08:24:39.071Z,9.80
2018-10-06T08:27:07.667Z,8.93
2018-10-06T08:29:36.264Z,9.20
2018-10-06T08:32:04.862Z,9.70
2018-10-06T08:34:33.472Z,13.87
2018-10-06T08:37:02.074Z,8.60
2018-10-06T08:39:30.680Z,8.10
2018-10-06T08:41:59.288Z,9.07
2018-10-06T08:44:27.892Z,7.40
2018-10-06T08:46:56.503Z,9.63
2018-10-06T08:49:25.094Z,6.67
2018-10-06T08:51:53.700Z,7.10
2018-10-06T08:54:22.282Z,6.93
2018-10-06T08:56:50.897Z,7.20
2018-10-06T08:59:19.495Z,7.60
2018-10-06T09:01:48.107Z,5.10
2018-10-06T09:04:16.747Z,6.00
2018-10-06T09:06:45.307Z,5.93
2018-10-06T09:09:13.895Z,8.27
2018-10-06T09:11:42.504Z,5.10
2018-10-06T09:14:11.108Z,8.60
2018-10-06T09:16:39.711Z,7.90
2018-10-06T09:19:08.310Z,5.27
2018-10-06T09:21:36.923Z,6.40
2018-10-06T09:24:05.847Z,7.40
2018-10-06T09:26:34.456Z,4.40
2018-10-06T09:29:09.679Z,4.93
2018-10-06T09:31:38.311Z,4.40
2018-10-06T09:34:07.196Z,6.17
2018-10-06T09:36:35.816Z,8.97
2018-10-06T09:39:05.859Z,4.60
2018-10-06T09:41:34.477Z,6.10
2018-10-06T09:44:03.089Z,5.60
2018-10-06T09:46:31.686Z,4.23
2018-10-06T09:49:00.288Z,4.60
2018-10-06T09:51:28.882Z,5.67
2018-10-06T09:53:57.483Z,4.10
2018-10-06T09:56:26.077Z,4.33
2018-10-06T09:58:54.684Z,5.67
2018-10-06T10:01:28.607Z,4.63
2018-10-06T10:04:02.708Z,4.80
2018-10-06T10:06:31.324Z,5.70
2018-10-06T10:08:59.927Z,5.23
2018-10-06T10:11:28.523Z,5.80
2018-10-06T10:13:57.131Z,3.60
2018-10-06T10:16:25.741Z,6.20
2018-10-06T10:18:54.368Z,6.90
2018-10-06T10:21:22.960Z,5.37
2018-10-06T10:23:51.619Z,6.70
2018-10-06T10:26:20.200Z,4.60
2018-10-06T10:28:48.845Z,6.00
2018-10-06T10:31:17.624Z,5.80
2018-10-06T10:33:46.258Z,5.53
2018-10-06T10:36:16.324Z,3.87
2018-10-06T10:38:45.550Z,5.43
2018-10-06T10:41:18.467Z,7.33
2018-10-06T10:43:48.518Z,5.20
2018-10-06T10:46:17.964Z,3.92
2018-10-06T10:48:48.810Z,4.17
2018-10-06T10:51:17.588Z,4.72
2018-10-06T10:53:46.212Z,4.30
2018-10-06T10:56:14.932Z,5.08
2018-10-06T10:58:43.536Z,3.87
2018-10-06T11:01:12.177Z,5.58
2018-10-06T11:03:40.774Z,5.20
2018-10-06T11:06:09.360Z,4.25
2018-10-06T11:08:37.964Z,3.95
2018-10-06T11:11:06.598Z,4.12
2018-10-06T11:13:35.191Z,3.85
2018-10-06T11:16:03.808Z,4.45
2018-10-06T11:18:32.526Z,4.47
2018-10-06T11:21:06.815Z,4.17
2018-10-06T11:23:35.672Z,4.80
2018-10-06T11:26:04.294Z,3.80
2018-10-06T11:28:32.907Z,4.70
2018-10-06T11:31:01.538Z,3.58
2018-10-06T11:33:30.130Z,3.80
2018-10-06T11:35:58.759Z,3.52
2018-10-06T11:38:27.352Z,3.80
2018-10-06T11:40:55.971Z,6.37
2018-10-06T11:43:24.560Z,5.03
2018-10-06T11:45:53.168Z,3.77
2018-10-06T11:48:21.784Z,4.72
2018-10-06T11:50:50.387Z,5.15
2018-10-06T11:53:18.994Z,5.97
2018-10-06T11:55:47.603Z,3.50
2018-10-06T11:58:16.199Z,4.35
2018-10-06T12:00:44.864Z,4.30
2018-10-06T12:03:13.420Z,4.00
2018-10-06T12:05:42.062Z,6.22
2018-10-06T12:08:10.636Z,5.10
2018-10-06T12:10:39.241Z,4.53
2018-10-06T12:13:07.852Z,6.37
2018-10-06T12:15:36.459Z,4.58
2018-10-06T12:18:05.096Z,4.37
2018-10-06T12:20:33.811Z,3.40
2018-10-06T12:23:02.310Z,4.17
2018-10-06T12:25:30.931Z,4.03
2018-10-06T12:27:59.560Z,3.60
2018-10-06T12:30:28.169Z,4.50
2018-10-06T12:32:56.782Z,5.42
2018-10-06T12:35:25.493Z,3.47
2018-10-06T12:37:53.991Z,4.70
2018-10-06T12:40:22.623Z,4.05
2018-10-06T12:42:51.231Z,4.05
2018-10-06T12:45:19.820Z,3.98
2018-10-06T12:47:48.428Z,3.72
2018-10-06T12:50:17.015Z,5.08
2018-10-06T12:52:45.633Z,3.22
2018-10-06T12:55:14.221Z,3.42
2018-10-06T12:57:42.816Z,6.58
2018-10-06T13:00:11.477Z,3.85
2018-10-06T13:02:40.007Z,3.25
2018-10-06T13:05:08.604Z,6.95
2018-10-06T13:07:37.243Z,3.40
2018-10-06T13:10:05.854Z,3.65
2018-10-06T13:12:34.451Z,4.80
2018-10-06T13:15:03.072Z,5.35
2018-10-06T13:17:31.678Z,5.42
2018-10-06T13:20:00.287Z,5.00
2018-10-06T13:22:28.900Z,3.40
2018-10-06T13:24:57.493Z,5.78
2018-10-06T13:27:26.082Z,7.12
2018-10-06T13:29:54.703Z,5.90
2018-10-06T13:32:23.327Z,4.47
2018-10-06T13:34:51.988Z,6.97
2018-10-06T13:37:20.597Z,6.33
2018-10-06T13:39:49.203Z,7.30
2018-10-06T13:42:17.804Z,5.70
2018-10-06T13:44:46.731Z,6.20
2018-10-06T13:47:15.337Z,4.45
2018-10-06T13:49:44.023Z,6.00
2018-10-06T13:52:12.559Z,5.97
2018-10-06T13:54:41.239Z,3.90
2018-10-06T13:57:09.861Z,6.90
2018-10-06T13:59:38.467Z,7.95
2018-10-06T14:02:07.073Z,3.58
2018-10-06T14:04:35.696Z,9.40
2018-10-06T14:07:04.291Z,6.75
2018-10-06T14:09:32.907Z,6.67
2018-10-06T14:12:01.495Z,5.60
2018-10-06T14:14:30.120Z,8.58
2018-10-06T14:16:58.724Z,3.75
2018-10-06T14:19:27.323Z,15.70
2018-10-06T14:21:55.915Z,5.95
2018-10-06T14:24:24.552Z,4.72
2018-10-06T14:27:24.287Z,9.50
2018-10-06T14:29:52.887Z,3.67
2018-10-06T14:32:21.482Z,8.88
2018-10-06T14:34:50.086Z,6.37
2018-10-06T14:37:18.671Z,4.42
2018-10-06T14:40:51.008Z,7.10
2018-10-06T14:43:19.612Z,7.45
2018-10-06T14:45:48.211Z,6.67
2018-10-06T14:48:16.819Z,5.30
2018-10-06T14:50:46.239Z,3.90
2018-10-06T14:53:14.831Z,5.90
2018-10-06T14:55:43.431Z,6.47
2018-10-06T14:58:12.044Z,6.15
2018-10-06T15:00:40.648Z,3.65
2018-10-06T15:03:09.236Z,4.30
2018-10-06T15:05:37.840Z,6.17
2018-10-06T15:08:06.508Z,6.08
2018-10-06T15:10:35.131Z,4.92
2018-10-06T15:13:03.726Z,4.57
2018-10-06T15:15:32.323Z,4.03
2018-10-06T15:18:01.000Z,3.93
2018-10-06T15:20:29.612Z,5.50
2018-10-06T15:22:58.207Z,6.93
2018-10-06T15:25:26.819Z,5.77
2018-10-06T15:27:55.448Z,8.70
2018-10-06T15:30:24.051Z,7.20
2018-10-06T15:32:52.652Z,9.50
2018-10-06T15:35:21.379Z,7.80
2018-10-06T15:37:50.026Z,5.70
2018-10-06T15:40:18.588Z,6.90
2018-10-06T15:42:47.221Z,7.37
2018-10-06T15:45:15.787Z,7.60
2018-10-06T15:47:44.386Z,9.10
2018-10-06T15:50:12.995Z,6.53
2018-10-06T15:52:41.582Z,8.20
2018-10-06T15:55:10.184Z,15.27
2018-10-06T15:57:38.780Z,7.43
2018-10-06T16:00:07.403Z,6.83
2018-10-06T16:02:36.037Z,5.70
2018-10-06T16:05:04.643Z,5.93
2018-10-06T16:07:33.239Z,8.07
2018-10-06T16:10:01.842Z,8.13
2018-10-06T16:12:30.455Z,4.87
2018-10-06T16:14:59.057Z,8.23
2018-10-06T16:17:27.663Z,6.23
2018-10-06T16:19:56.267Z,6.70
2018-10-06T16:22:24.859Z,8.80
2018-10-06T16:24:53.444Z,8.37
2018-10-06T16:27:22.062Z,7.23
2018-10-06T16:29:51.052Z,4.90
2018-10-06T16:32:19.672Z,6.90
2018-10-06T16:34:48.276Z,6.43
2018-10-06T16:37:16.880Z,9.30
2018-10-06T16:39:45.483Z,8.00
2018-10-06T16:42:14.095Z,8.87
2018-10-06T16:44:42.690Z,9.03
2018-10-06T16:47:11.475Z,7.70
2018-10-06T16:49:40.411Z,13.77
2018-10-06T16:52:09.077Z,8.20
2018-10-06T16:54:37.751Z,8.17
2018-10-06T16:57:06.423Z,9.60
2018-10-06T16:59:35.011Z,10.67
2018-10-06T17:02:03.730Z,7.63
2018-10-06T17:04:32.227Z,7.17
2018-10-06T17:07:01.576Z,7.73
2018-10-06T17:09:30.152Z,10.40
2018-10-06T17:11:58.756Z,9.70
2018-10-06T17:14:27.347Z,10.80
2018-10-06T17:16:55.951Z,10.20
2018-10-06T17:19:24.556Z,11.60
2018-10-06T17:21:53.175Z,14.47
2018-10-06T17:24:21.836Z,14.03
2018-10-06T17:26:50.383Z,14.23
2018-10-06T17:29:19.004Z,11.73
2018-10-06T17:31:47.588Z,14.30
2018-10-06T17:34:16.222Z,16.97
2018-10-06T17:36:44.823Z,11.50
2018-10-06T17:39:13.441Z,10.60
2018-10-06T17:41:42.062Z,11.90
2018-10-06T17:44:10.692Z,14.43
2018-10-06T17:46:39.290Z,15.43
2018-10-06T17:49:07.927Z,11.27
2018-10-06T17:51:36.545Z,12.20
2018-10-06T17:54:05.150Z,12.73
2018-10-06T17:56:33.753Z,11.70
2018-10-06T17:59:02.436Z,12.30
2018-10-06T18:01:30.980Z,10.80
2018-10-06T18:03:59.588Z,9.27
2018-10-06T18:06:28.191Z,10.60
2018-10-06T18:08:56.808Z,13.83
2018-10-06T18:11:25.428Z,12.57
2018-10-06T18:13:54.037Z,11.63
2018-10-06T18:16:22.656Z,14.97
2018-10-06T18:18:51.265Z,12.43
2018-10-06T18:21:20.125Z,12.17
2018-10-06T18:23:48.486Z,16.40
2018-10-06T18:26:17.191Z,10.73
2018-10-06T18:28:45.815Z,12.67
2018-10-06T18:31:14.436Z,14.73
2018-10-06T18:33:43.047Z,13.90
2018-10-06T18:36:11.735Z,16.27
2018-10-06T18:38:40.291Z,18.03
2018-10-06T18:41:08.912Z,14.37
2018-10-06T18:43:37.565Z,14.93
2018-10-06T18:46:06.132Z,11.10
2018-10-06T18:48:34.756Z,9.33
2018-10-06T18:51:03.378Z,10.10
2018-10-06T18:53:31.977Z,10.77
2018-10-06T18:56:00.599Z,15.20
2018-10-06T18:58:29.231Z,9.03
2018-10-06T19:00:57.831Z,11.70
2018-10-06T19:03:26.516Z,9.23
2018-10-06T19:05:55.060Z,10.60
2018-10-06T19:08:23.683Z,10.20
2018-10-06T19:10:52.284Z,10.70
2018-10-06T19:13:20.891Z,9.83
2018-10-06T19:15:49.505Z,11.10
2018-10-06T19:18:18.114Z,13.23
2018-10-06T19:20:46.713Z,11.77
2018-10-06T19:23:15.331Z,10.33
2018-10-06T19:25:43.974Z,10.50
2018-10-06T19:28:12.528Z,14.50
2018-10-06T19:30:41.123Z,8.33
2018-10-06T19:33:09.720Z,8.90
2018-10-06T19:35:38.343Z,10.57
2018-10-06T19:38:06.957Z,8.57
2018-10-06T19:40:35.551Z,9.00
2018-10-06T19:43:04.170Z,9.93
2018-10-06T19:45:32.759Z,10.40
2018-10-06T19:48:01.369Z,9.43
2018-10-06T19:50:29.974Z,11.97
2018-10-06T19:52:58.571Z,13.73
2018-10-06T19:55:27.167Z,10.80
2018-10-06T19:57:55.775Z,10.67
2018-10-06T20:00:24.383Z,10.00
2018-10-06T20:02:52.994Z,9.57
2018-10-06T20:05:21.590Z,16.73
2018-10-06T20:07:50.183Z,9.80
2018-10-06T20:10:18.820Z,13.10
2018-10-06T20:12:47.442Z,11.03
2018-10-06T20:15:16.037Z,12.33
2018-10-06T20:17:44.648Z,11.27
2018-10-06T20:20:13.248Z,14.67
2018-10-06T20:22:41.859Z,11.20
2018-10-06T20:25:10.470Z,12.10
2018-10-06T20:27:39.087Z,11.13
2018-10-06T20:30:07.700Z,10.63
2018-10-06T20:32:36.319Z,10.80
2018-10-06T20:35:04.940Z,15.50
2018-10-06T20:37:33.554Z,11.97
2018-10-06T20:40:02.243Z,13.43
2018-10-06T20:42:30.792Z,13.53
2018-10-06T20:44:59.427Z,15.00
2018-10-06T20:47:28.035Z,17.90
2018-10-06T20:49:56.660Z,19.97
2018-10-06T20:52:25.263Z,12.97
2018-10-06T20:54:53.876Z,13.87
2018-10-06T20:57:29.131Z,15.37
2018-10-06T20:59:57.738Z,19.13
2018-10-06T21:02:26.343Z,16.77
2018-10-06T21:04:54.955Z,16.13
2018-10-06T21:07:23.599Z,17.90
2018-10-06T21:09:52.256Z,18.30
2018-10-06T21:12:20.864Z,17.83
2018-10-06T21:14:49.479Z,17.23
2018-10-06T21:17:18.110Z,19.97
2018-10-06T21:19:46.707Z,18.77
2018-10-06T21:22:15.321Z,16.97
2018-10-06T21:24:43.943Z,21.43
2018-10-06T21:27:12.547Z,19.77
2018-10-06T21:29:41.387Z,20.53
2018-10-06T21:32:10.123Z,19.53
2018-10-06T21:34:38.751Z,21.30
2018-10-06T21:37:07.382Z,18.33
2018-10-06T21:39:36.001Z,19.07
2018-10-06T21:42:04.607Z,25.43
2018-10-06T21:44:33.232Z,20.60
2018-10-06T21:47:01.850Z,20.13
2018-10-06T21:49:30.463Z,19.13
2018-10-06T21:51:59.052Z,19.60
2018-10-06T21:54:27.660Z,22.40
2018-10-06T21:56:56.275Z,21.20
2018-10-06T21:59:24.899Z,22.10
2018-10-06T22:01:53.501Z,21.87
2018-10-06T22:04:22.104Z,21.67
2018-10-06T22:06:50.706Z,21.40
2018-10-06T22:09:19.320Z,20.93
2018-10-06T22:11:47.924Z,22.30
2018-10-06T22:14:16.539Z,23.53
2018-10-06T22:16:45.152Z,21.30
2018-10-06T22:19:13.818Z,24.50
2018-10-06T22:21:42.387Z,24.17
2018-10-06T22:24:11.003Z,25.00
2018-10-06T22:26:39.628Z,27.60
2018-10-06T22:29:08.306Z,23.77
2018-10-06T22:31:36.876Z,25.90
2018-10-06T22:34:05.537Z,24.97
2018-10-06T22:36:34.170Z,28.30
2018-10-06T22:39:02.839Z,26.63
2018-10-06T22:41:31.451Z,26.40
2018-10-06T22:44:00.062Z,26.77
2018-10-06T22:46:28.671Z,28.17
2018-10-06T22:48:57.273Z,28.30
2018-10-06T22:51:25.879Z,30.87
2018-10-06T22:53:54.488Z,32.47
2018-10-06T22:56:23.119Z,36.13
2018-10-06T22:58:51.730Z,33.27
2018-10-06T23:01:20.340Z,39.50
2018-10-06T23:03:48.941Z,37.30
2018-10-06T23:06:17.560Z,40.10
2018-10-06T23:08:46.163Z,42.70
2018-10-06T23:11:14.788Z,41.23
2018-10-06T23:13:43.394Z,36.20
2018-10-06T23:16:11.991Z,36.33
2018-10-06T23:18:40.605Z,36.97
2018-10-06T23:21:09.220Z,41.30
2018-10-06T23:23:37.827Z,37.27
2018-10-06T23:26:06.500Z,37.67
2018-10-06T23:28:35.073Z,35.73
2018-10-06T23:31:03.693Z,42.57
2018-10-06T23:33:32.301Z,66.57
2018-10-06T23:36:00.910Z,60.20
2018-10-06T23:38:29.523Z,49.87
2018-10-06T23:40:58.140Z,65.83
2018-10-06T23:43:26.752Z,53.20
2018-10-06T23:45:55.376Z,44.23
2018-10-06T23:48:23.986Z,52.47
2018-10-06T23:50:52.612Z,48.27
2018-10-06T23:53:21.212Z,41.43
2018-10-06T23:55:49.885Z,46.20
2018-10-06T23:58:18.495Z,43.33
